Time;durP1;ratioP1;P1;durP2;ratioP2;P2;SDS_P1;SDS_P2;PMS_P1;PMS_P2;Temp;Humidity;BMP_temperature;BMP_pressure;BME280_temperature;BME280_humidity;BME280_pressure;Samples;Min_cycle;Max_cycle;Signal;HPM_P1;HPM_P2
2023/05/19 06:51:55;;;;;;;7.10;2.30;;;;;;;19.03;58.66;98892.20;103464;1294;601091;-79
2023/05/19 06:54:24;;;;;;;4.60;2.00;;;;;;;19.03;58.67;98893.18;105755;1267;60099;-80
2023/05/19 06:56:53;;;;;;;4.40;2.00;;;;;;;19.05;58.65;98893.27;105645;1267;60586;-80
2023/05/19 06:59:21;;;;;;;3.10;2.10;;;;;;;19.09;58.64;98887.12;105822;1273;72891;-79
2023/05/19 07:01:50;;;;;;;3.90;2.40;;;;;;;19.13;58.61;98887.85;105380;1273;70627;-81
2023/05/19 07:04:17;;;;;;;4.30;1.80;;;;;;;19.17;58.48;98890.95;105181;1267;74647;-83
2023/05/19 07:06:46;;;;;;;2.80;1.80;;;;;;;19.20;58.32;98888.63;105263;1273;172701;-80
2023/05/19 07:09:15;;;;;;;7.90;2.20;;;;;;;19.24;58.33;98887.86;105782;1264;62648;-83
2023/05/19 07:11:43;;;;;;;5.00;2.30;;;;;;;19.28;58.26;98885.83;105863;1257;74255;-80
2023/05/19 07:14:11;;;;;;;7.90;2.30;;;;;;;19.32;58.20;98886.50;105872;1261;69962;-81
2023/05/19 07:16:40;;;;;;;3.50;1.70;;;;;;;19.36;58.08;98885.44;105775;1257;74583;-82
2023/05/19 07:19:08;;;;;;;4.40;2.00;;;;;;;19.39;58.01;98878.39;106311;1257;62345;-83
2023/05/19 07:21:36;;;;;;;3.30;2.00;;;;;;;19.43;57.97;98880.91;106184;1256;60903;-83
2023/05/19 07:24:04;;;;;;;5.10;2.10;;;;;;;19.47;57.94;98878.73;106546;1260;74885;-82
2023/05/19 07:26:37;;;;;;;2.00;1.80;;;;;;;19.50;57.73;98879.84;106274;1260;70677;-82
2023/05/19 07:29:05;;;;;;;6.50;1.80;;;;;;;19.53;57.54;98877.39;105855;1258;75260;-82
2023/05/19 07:31:33;;;;;;;4.00;1.90;;;;;;;19.56;57.44;98882.00;105955;1255;61495;-81
2023/05/19 07:34:02;;;;;;;4.80;1.90;;;;;;;19.59;57.47;98876.45;105801;1257;62386;-81
2023/05/19 07:36:30;;;;;;;8.00;2.10;;;;;;;19.62;57.29;98881.83;105848;1256;74160;-81
2023/05/19 07:38:58;;;;;;;15.10;3.20;;;;;;;19.65;57.22;98882.98;106617;1257;69712;-87
2023/05/19 07:41:31;;;;;;;8.40;2.20;;;;;;;19.68;57.16;98884.30;106745;1257;75105;-85
2023/05/19 07:44:11;;;;;;;13.20;2.50;;;;;;;19.70;57.06;98882.40;106488;1257;60739;-89
2023/05/19 07:46:43;;;;;;;8.40;2.00;;;;;;;19.73;56.97;98880.45;106877;1259;62509;-87
2023/05/19 07:49:10;;;;;;;10.40;2.30;;;;;;;19.76;56.91;98879.64;106252;1263;74799;-85
2023/05/19 07:51:43;;;;;;;13.40;2.30;;;;;;;19.78;56.98;98880.17;105992;1258;70138;-89
2023/05/19 07:54:11;;;;;;;4.90;2.70;;;;;;;19.81;56.81;98881.02;106208;1256;74745;-85
2023/05/19 07:56:40;;;;;;;7.00;2.30;;;;;;;19.82;57.00;98876.85;106154;1257;64749;-88
2023/05/19 07:59:08;;;;;;;7.90;2.40;;;;;;;19.84;56.98;98875.37;106124;1256;62360;-87
2023/05/19 08:01:35;;;;;;;8.30;2.70;;;;;;;19.87;56.98;98880.23;106001;1258;75154;-87
2023/05/19 08:04:03;;;;;;;8.00;2.90;;;;;;;19.88;56.98;98878.53;106215;1258;69154;-83
2023/05/19 08:06:31;;;;;;;5.10;2.60;;;;;;;19.90;56.81;98874.73;105855;1257;74718;-79
2023/05/19 08:08:59;;;;;;;6.50;3.00;;;;;;;19.90;56.82;98871.94;105913;1262;60988;-80
2023/05/19 08:11:27;;;;;;;5.50;2.90;;;;;;;19.92;56.71;98873.09;106042;1263;59680;-81
2023/05/19 08:13:55;;;;;;;6.50;2.70;;;;;;;19.92;56.71;98873.71;105962;1262;75103;-80
2023/05/19 08:16:23;;;;;;;10.20;2.80;;;;;;;19.93;56.80;98871.83;106331;1257;70607;-80
2023/05/19 08:18:51;;;;;;;7.80;2.90;;;;;;;19.94;56.83;98867.21;105828;1264;73579;-82
2023/05/19 08:21:19;;;;;;;7.60;3.00;;;;;;;19.95;56.79;98868.52;105977;1257;62436;-83
2023/05/19 08:23:46;;;;;;;9.40;3.40;;;;;;;19.96;56.83;98870.05;106177;1257;62384;-88
2023/05/19 08:26:17;;;;;;;8.50;3.50;;;;;;;19.97;56.87;98873.79;106235;1257;73150;-87
2023/05/19 08:28:49;;;;;;;8.50;3.10;;;;;;;19.98;56.79;98873.36;106397;1257;70871;-86
2023/05/19 08:31:17;;;;;;;10.00;3.00;;;;;;;19.98;56.85;98875.48;106665;1258;73709;-85
2023/05/19 08:33:45;;;;;;;8.50;4.20;;;;;;;19.99;56.98;98874.10;106286;1257;62192;-82
2023/05/19 08:36:13;;;;;;;10.00;3.30;;;;;;;20.00;56.94;98872.80;106893;1257;60555;-83
2023/05/19 08:38:41;;;;;;;8.50;3.00;;;;;;;20.01;57.03;98871.89;106358;1257;73058;-84
2023/05/19 08:41:09;;;;;;;6.40;2.90;;;;;;;20.02;56.98;98875.30;106265;1262;69567;-82
2023/05/19 08:43:38;;;;;;;6.80;3.10;;;;;;;20.02;56.90;98872.31;106369;1260;74129;-81
2023/05/19 08:46:06;;;;;;;8.70;3.10;;;;;;;20.03;56.97;98869.31;106138;1258;61166;-80
2023/05/19 08:48:34;;;;;;;18.00;3.80;;;;;;;20.04;56.94;98870.93;106191;1257;61578;-79
2023/05/19 08:51:40;;;;;;;16.40;3.90;;;;;;;20.04;57.06;98870.35;106013;1261;75015;-79
2023/05/19 08:54:16;;;;;;;10.30;2.90;;;;;;;20.04;56.91;98871.08;105864;1260;68723;-82
2023/05/19 08:56:44;;;;;;;6.60;3.10;;;;;;;20.04;56.96;98872.19;105995;1258;74780;-80
2023/05/19 08:59:13;;;;;;;9.10;3.70;;;;;;;20.04;56.99;98870.02;105973;1257;62372;-80
2023/05/19 09:01:44;;;;;;;11.30;3.80;;;;;;;20.04;56.98;98872.16;105919;1257;62250;-79
2023/05/19 09:04:12;;;;;;;11.00;3.40;;;;;;;20.03;56.97;98872.42;105952;1260;74932;-79
2023/05/19 09:11:04;;;;;;;14.60;3.90;;;;;;;20.02;56.90;98869.27;105904;1257;72113;-77
2023/05/19 09:13:32;;;;;;;9.00;3.70;;;;;;;20.02;57.02;98871.31;106249;1261;61047;-78
2023/05/19 09:16:00;;;;;;;10.00;4.20;;;;;;;20.01;56.95;98870.66;106161;1261;60833;-79
2023/05/19 09:18:31;;;;;;;6.90;3.60;;;;;;;20.00;57.00;98869.09;105888;1257;73144;-78
2023/05/19 09:21:01;;;;;;;8.80;4.10;;;;;;;20.00;56.95;98868.41;105972;1256;71011;-79
2023/05/19 09:23:32;;;;;;;10.60;3.60;;;;;;;20.00;56.93;98870.02;105845;1262;74208;-78
2023/05/19 09:26:05;;;;;;;16.00;5.40;;;;;;;20.00;56.96;98869.69;106080;1261;59292;-79
2023/05/19 09:28:35;;;;;;;5.70;3.20;;;;;;;19.99;56.89;98866.34;105801;1256;61197;-78
2023/05/19 09:31:04;;;;;;;8.10;3.50;;;;;;;19.99;56.90;98864.91;105957;1258;74119;-78
2023/05/19 09:33:37;;;;;;;8.50;4.10;;;;;;;19.98;56.84;98863.48;106024;1258;70431;-78
2023/05/19 09:36:07;;;;;;;5.80;3.70;;;;;;;19.98;56.92;98859.46;105960;1260;74831;-78
2023/05/19 09:38:35;;;;;;;9.00;4.00;;;;;;;19.98;56.85;98856.08;105908;1257;62396;-78
2023/05/19 09:41:04;;;;;;;9.60;4.00;;;;;;;19.97;56.81;98853.04;105800;1259;60872;-82
2023/05/19 09:43:33;;;;;;;6.60;3.80;;;;;;;19.97;56.87;98851.58;105943;1263;74847;-80
2023/05/19 09:46:09;;;;;;;10.10;4.10;;;;;;;19.97;56.96;98847.11;106103;1263;69736;-80
2023/05/19 09:48:41;;;;;;;7.00;3.60;;;;;;;19.96;56.98;98850.95;106028;1257;74563;-79
2023/05/19 09:51:11;;;;;;;7.30;3.90;;;;;;;19.96;56.91;98855.30;105967;1262;60261;-80
2023/05/19 09:53:39;;;;;;;6.10;3.70;;;;;;;19.97;56.83;98855.09;105873;1256;60952;-80
2023/05/19 09:56:07;;;;;;;10.30;3.80;;;;;;;19.96;56.81;98854.21;105994;1256;75275;-80
2023/05/19 09:58:37;;;;;;;10.00;4.30;;;;;;;19.97;56.87;98851.41;105752;1257;70369;-80
2023/05/19 10:01:05;;;;;;;5.70;3.10;;;;;;;19.97;56.88;98850.83;105913;1257;73157;-80
2023/05/19 10:03:33;;;;;;;6.40;3.50;;;;;;;19.98;56.93;98850.73;105920;1257;62376;-79
2023/05/19 10:06:06;;;;;;;7.10;3.70;;;;;;;19.99;56.85;98851.56;105840;1258;62292;-78
2023/05/19 10:08:34;;;;;;;8.70;3.80;;;;;;;20.00;56.76;98847.69;105490;1256;71580;-77
2023/05/19 10:11:04;;;;;;;5.70;3.90;;;;;;;20.00;56.78;98847.13;105944;1257;69452;-77
2023/05/19 10:13:32;;;;;;;9.70;4.40;;;;;;;20.01;56.83;98845.06;105979;1257;74740;-77
2023/05/19 10:15:59;;;;;;;8.00;4.20;;;;;;;20.01;56.84;98841.77;106006;1254;61095;-77
2023/05/19 10:18:28;;;;;;;10.50;4.10;;;;;;;20.02;56.87;98843.08;105901;1253;62257;-77
2023/05/19 10:20:56;;;;;;;12.50;4.50;;;;;;;20.03;56.98;98844.27;105868;1254;73559;-77
2023/05/19 10:23:25;;;;;;;22.20;5.40;;;;;;;20.04;57.02;98847.27;105927;1259;69592;-78
2023/05/19 10:25:55;;;;;;;9.80;3.90;;;;;;;20.04;57.10;98849.46;105966;1258;73707;-76
2023/05/19 10:28:26;;;;;;;4.90;3.70;;;;;;;20.05;57.20;98847.72;106009;1258;61174;-83
2023/05/19 10:30:56;;;;;;;9.20;4.00;;;;;;;20.06;57.18;98844.39;106211;1253;62263;-80
2023/05/19 10:33:57;;;;;;;8.20;4.10;;;;;;;20.06;57.34;98846.52;106321;1257;75055;-86
2023/05/19 10:36:41;;;;;;;7.00;3.90;;;;;;;20.07;57.41;98852.55;106099;1253;70745;-82
2023/05/19 10:39:17;;;;;;;18.90;4.20;;;;;;;20.08;57.49;98851.58;106275;1254;74876;-81
2023/05/19 10:41:59;;;;;;;;;;;;;;;20.08;57.39;98847.05;106287;1254;62456;-82
2023/05/19 10:44:52;;;;;;;9.60;4.70;;;;;;;20.08;57.24;98846.66;106155;1254;61070;-80
2023/05/19 10:47:24;;;;;;;8.10;4.10;;;;;;;20.08;57.26;98843.77;105831;1254;72039;-79
2023/05/19 10:49:53;;;;;;;13.00;4.80;;;;;;;20.09;57.30;98845.34;106206;1253;70336;-88
2023/05/19 10:52:24;;;;;;;7.10;4.30;;;;;;;20.09;57.41;98845.86;106307;1255;74617;-86
2023/05/19 10:54:53;;;;;;;11.00;3.90;;;;;;;20.09;57.57;98842.56;106139;1254;62344;-83
2023/05/19 10:57:30;;;;;;;9.90;4.10;;;;;;;20.10;57.83;98844.63;106106;1260;60968;-82
2023/05/19 11:00:08;;;;;;;10.20;4.60;;;;;;;20.11;58.18;98842.92;106255;1254;76127;-79
2023/05/19 11:02:36;;;;;;;17.90;5.00;;;;;;;20.12;58.68;98848.10;106194;1259;70698;-81
2023/05/19 11:05:13;;;;;;;13.60;4.80;;;;;;;20.12;58.88;98841.48;106257;1255;74684;-83
2023/05/19 11:07:43;;;;;;;9.70;4.40;;;;;;;20.13;59.04;98838.45;106202;1258;61223;-78
2023/05/19 11:10:11;;;;;;;13.70;3.90;;;;;;;20.15;59.07;98842.18;106082;1253;61948;-81
2023/05/19 11:12:44;;;;;;;10.00;3.80;;;;;;;20.15;59.10;98838.98;106226;1253;74711;-80
2023/05/19 11:15:15;;;;;;;6.50;4.10;;;;;;;20.16;59.07;98848.55;106030;1260;69665;-80
2023/05/19 11:17:47;;;;;;;7.80;4.00;;;;;;;20.17;58.89;98845.76;107145;1260;73512;-85
2023/05/19 11:20:25;;;;;;;10.50;4.80;;;;;;;20.18;58.72;98847.47;106472;1253;61518;-82
2023/05/19 11:23:05;;;;;;;7.40;4.20;;;;;;;20.19;58.60;98853.17;106242;1259;60465;-80
2023/05/19 11:25:47;;;;;;;6.90;3.80;;;;;;;20.20;58.34;98856.73;106231;1253;74877;-79
2023/05/19 11:28:16;;;;;;;4.90;4.20;;;;;;;20.19;58.18;98856.92;106057;1258;70502;-79
2023/05/19 11:30:50;;;;;;;8.00;4.20;;;;;;;20.20;58.09;98849.23;106124;1255;74776;-81
2023/05/19 11:33:19;;;;;;;9.00;3.90;;;;;;;20.20;58.09;98845.77;106087;1259;61030;-80
2023/05/19 11:35:50;;;;;;;8.40;4.30;;;;;;;20.21;57.93;98847.16;106035;1253;62295;-78
2023/05/19 11:38:18;;;;;;;6.50;4.10;;;;;;;20.21;57.82;98843.65;105883;1254;75939;-79
2023/05/19 11:40:48;;;;;;;5.70;3.90;;;;;;;20.22;57.75;98844.00;105920;1254;70663;-81
2023/05/19 11:43:16;;;;;;;7.90;4.00;;;;;;;20.22;57.85;98847.74;105899;1254;74583;-83
2023/05/19 11:45:44;;;;;;;5.90;3.60;;;;;;;20.22;57.70;98847.20;106153;1253;62278;-81
2023/05/19 11:48:17;;;;;;;4.10;3.50;;;;;;;20.22;57.55;98845.91;105979;1254;62444;-87
2023/05/19 11:50:47;;;;;;;6.30;3.10;;;;;;;20.23;57.62;98844.63;105998;1254;74618;-81
2023/05/19 11:53:18;;;;;;;7.90;3.60;;;;;;;20.23;57.57;98841.89;106179;1253;70907;-80
2023/05/19 11:55:46;;;;;;;5.50;3.40;;;;;;;20.23;57.44;98843.14;105922;1254;74858;-79
2023/05/19 11:58:16;;;;;;;6.60;3.60;;;;;;;20.23;57.62;98842.27;105978;1259;62598;-80
2023/05/19 12:00:44;;;;;;;3.80;3.40;;;;;;;20.24;57.68;98842.58;105764;1261;63033;-83
2023/05/19 12:03:12;;;;;;;4.70;3.10;;;;;;;20.24;57.53;98844.72;106108;1254;75734;-81
2023/05/19 12:05:44;;;;;;;5.60;3.50;;;;;;;20.25;57.50;98843.38;106090;1258;69698;-81
2023/05/19 12:08:13;;;;;;;7.20;3.70;;;;;;;20.25;57.53;98842.98;106006;1254;74475;-80
2023/05/19 12:10:41;;;;;;;7.40;3.80;;;;;;;20.25;57.52;98836.83;105942;1254;62207;-80
2023/05/19 12:13:09;;;;;;;6.60;4.10;;;;;;;20.25;57.58;98835.13;106239;1254;60544;-83
2023/05/19 12:15:37;;;;;;;9.70;3.50;;;;;;;20.26;57.54;98835.42;106128;1254;76729;-82
2023/05/19 12:18:06;;;;;;;6.90;3.30;;;;;;;20.26;57.96;98832.30;106200;1253;69431;-83
2023/05/19 12:20:36;;;;;;;14.30;3.90;;;;;;;20.27;58.25;98832.58;106072;1254;74627;-79
2023/05/19 12:23:03;;;;;;;11.90;4.50;;;;;;;20.28;58.41;98835.39;106322;1253;61351;-84
2023/05/19 12:25:32;;;;;;;13.40;4.10;;;;;;;20.29;58.62;98831.13;106669;1254;61217;-85
2023/05/19 12:28:01;;;;;;;12.90;4.50;;;;;;;20.30;58.79;98836.86;106127;1253;74056;-82
2023/05/19 12:30:33;;;;;;;12.90;3.70;;;;;;;20.30;58.79;98844.27;106621;1253;69769;-84
2023/05/19 12:33:02;;;;;;;9.00;4.10;;;;;;;20.31;58.95;98855.48;106624;1254;74706;-85
2023/05/19 12:35:36;;;;;;;10.20;4.20;;;;;;;20.31;58.77;98854.56;106731;1258;60563;-87
2023/05/19 12:38:11;;;;;;;13.10;4.20;;;;;;;20.32;58.76;98844.48;106351;1253;60335;-79
2023/05/19 12:40:51;;;;;;;8.90;4.20;;;;;;;20.32;58.69;98837.15;105871;1253;73675;-78
2023/05/19 12:43:21;;;;;;;31.20;6.30;;;;;;;20.32;58.68;98848.21;106180;1254;70316;-82
2023/05/19 12:45:49;;;;;;;10.10;4.20;;;;;;;20.33;58.78;98854.18;106302;1256;72353;-82
2023/05/19 12:48:22;;;;;;;16.00;5.20;;;;;;;20.33;58.73;98852.67;106253;1258;61591;-90
2023/05/19 12:50:52;;;;;;;16.10;4.90;;;;;;;20.34;58.79;98854.98;106068;1254;61279;-82
2023/05/19 12:53:20;;;;;;;16.10;4.30;;;;;;;20.34;59.01;98860.95;106064;1254;75898;-84
2023/05/19 12:55:51;;;;;;;15.30;4.90;;;;;;;20.35;59.06;98858.80;106056;1253;70395;-82
2023/05/19 12:58:22;;;;;;;11.70;4.30;;;;;;;20.35;59.04;98857.70;106158;1258;73642;-83
2023/05/19 13:00:50;;;;;;;9.30;4.60;;;;;;;20.35;58.94;98858.27;106270;1258;61193;-83
2023/05/19 13:03:19;;;;;;;16.30;4.50;;;;;;;20.36;58.76;98868.04;106322;1259;61308;-83
2023/05/19 13:05:49;;;;;;;16.10;4.90;;;;;;;20.36;58.75;98865.31;105911;1254;74904;-83
2023/05/19 13:08:18;;;;;;;12.80;5.20;;;;;;;20.35;58.62;98867.15;106529;1254;69720;-83
2023/05/19 13:10:47;;;;;;;13.40;4.80;;;;;;;20.34;58.58;98867.28;106733;1253;72369;-83
2023/05/19 13:13:15;;;;;;;11.60;4.70;;;;;;;20.34;58.51;98863.29;106144;1258;60538;-81
2023/05/19 13:15:44;;;;;;;10.00;4.40;;;;;;;20.33;58.43;98858.98;106083;1255;61250;-83
2023/05/19 13:18:12;;;;;;;11.00;4.60;;;;;;;20.33;58.43;98853.23;106774;1256;74773;-83
2023/05/19 13:20:41;;;;;;;13.90;4.70;;;;;;;20.32;58.48;98845.52;106519;1255;69378;-82
2023/05/19 13:23:09;;;;;;;9.80;4.80;;;;;;;20.31;58.35;98843.38;106268;1254;74541;-82
2023/05/19 13:25:37;;;;;;;15.20;4.90;;;;;;;20.31;58.34;98846.77;106146;1254;62079;-83
2023/05/19 13:28:05;;;;;;;8.40;4.80;;;;;;;20.30;58.38;98848.09;106383;1254;60437;-84
2023/05/19 13:30:34;;;;;;;12.70;4.90;;;;;;;20.29;58.32;98835.84;106042;1254;74691;-82
2023/05/19 13:33:02;;;;;;;11.90;4.70;;;;;;;20.28;58.16;98826.14;106198;1254;70695;-83
2023/05/19 13:35:35;;;;;;;11.50;5.00;;;;;;;20.27;58.17;98828.05;106035;1254;74770;-82
2023/05/19 13:38:10;;;;;;;;;;;;;;;20.27;58.17;98833.91;106046;1254;62424;-82
2023/05/19 13:40:38;;;;;;;7.70;4.30;;;;;;;20.25;58.23;98826.98;105953;1258;61158;-83
2023/05/19 13:43:07;;;;;;;12.90;4.40;;;;;;;20.22;58.27;98831.71;105936;1258;75847;-82
2023/05/19 13:45:36;;;;;;;13.70;4.60;;;;;;;20.22;58.18;98833.25;105721;1254;69534;-82
2023/05/19 13:48:05;;;;;;;11.50;5.00;;;;;;;20.21;58.22;98825.16;105994;1254;73737;-83
2023/05/19 13:50:35;;;;;;;7.70;4.20;;;;;;;20.20;58.26;98825.45;105625;1261;60461;-82
2023/05/19 13:53:03;;;;;;;10.60;4.90;;;;;;;20.18;58.27;98822.16;105707;1256;62521;-83
2023/05/19 13:55:34;;;;;;;7.00;3.90;;;;;;;20.18;58.12;98825.45;105856;1254;76072;-82
2023/05/19 13:58:02;;;;;;;8.00;4.40;;;;;;;20.17;58.19;98823.18;105891;1254;70967;-82
2023/05/19 14:00:30;;;;;;;10.70;4.60;;;;;;;20.16;58.14;98824.71;105776;1260;73856;-82
2023/05/19 14:02:59;;;;;;;10.90;5.00;;;;;;;20.15;58.13;98822.08;105906;1253;62461;-82
2023/05/19 14:05:27;;;;;;;8.10;4.00;;;;;;;20.15;58.14;98823.98;105794;1253;62276;-82
2023/05/19 14:07:55;;;;;;;10.00;4.80;;;;;;;20.14;58.13;98828.45;105859;1253;74888;-82
2023/05/19 14:10:24;;;;;;;7.80;4.60;;;;;;;20.13;58.05;98829.63;105922;1253;70964;-82
2023/05/19 14:12:52;;;;;;;7.80;4.40;;;;;;;20.12;58.03;98830.23;105793;1254;73438;-81
2023/05/19 14:15:40;;;;;;;8.10;4.30;;;;;;;20.11;58.05;98826.38;105984;1253;62423;-81
2023/05/19 14:18:10;;;;;;;10.10;4.60;;;;;;;20.11;58.03;98832.58;106074;1253;61127;-84
2023/05/19 14:20:37;;;;;;;7.60;4.00;;;;;;;20.10;58.07;98831.59;105959;1258;75821;-78
2023/05/19 14:23:05;;;;;;;6.40;4.00;;;;;;;20.09;57.97;98832.77;105933;1253;70753;-78
2023/05/19 14:25:33;;;;;;;8.40;4.80;;;;;;;20.09;58.06;98830.45;106086;1253;75084;-82
2023/05/19 14:28:01;;;;;;;6.80;4.40;;;;;;;20.08;58.00;98834.36;106144;1253;61141;-78
2023/05/19 14:30:28;;;;;;;8.00;4.60;;;;;;;20.07;58.05;98832.42;105808;1253;62220;-79
2023/05/19 14:32:56;;;;;;;7.00;4.20;;;;;;;20.06;57.99;98838.33;106045;1253;74593;-79
2023/05/19 14:35:24;;;;;;;5.80;4.30;;;;;;;20.06;58.07;98844.53;106029;1253;70600;-84
2023/05/19 14:37:52;;;;;;;8.00;4.60;;;;;;;20.05;58.15;98844.61;106057;1256;73981;-84
2023/05/19 14:40:20;;;;;;;6.70;4.10;;;;;;;20.05;58.01;98841.72;106417;1254;62072;-84
2023/05/19 14:42:47;;;;;;;4.80;4.30;;;;;;;20.04;58.06;98838.90;106313;1258;60496;-82
2023/05/19 14:45:15;;;;;;;10.10;4.60;;;;;;;20.04;58.10;98839.44;106101;1253;74509;-83
2023/05/19 14:47:43;;;;;;;6.20;4.20;;;;;;;20.03;57.98;98842.61;105906;1253;70300;-83
2023/05/19 14:50:13;;;;;;;8.90;4.70;;;;;;;20.02;58.01;98838.88;106035;1258;74849;-83
2023/05/19 14:52:40;;;;;;;6.50;4.40;;;;;;;20.02;58.04;98839.97;106115;1253;62184;-83
2023/05/19 14:55:08;;;;;;;5.20;4.00;;;;;;;20.02;57.93;98838.73;106279;1253;62042;-82
2023/05/19 14:57:39;;;;;;;8.60;4.60;;;;;;;20.01;57.93;98838.05;106527;1253;75127;-83
2023/05/19 15:00:10;;;;;;;10.40;4.90;;;;;;;20.01;57.93;98842.31;106480;1253;70952;-83
2023/05/19 15:02:37;;;;;;;7.00;4.20;;;;;;;20.01;58.04;98845.41;107063;1253;74693;-82
2023/05/19 15:05:06;;;;;;;5.70;4.40;;;;;;;20.01;57.84;98847.96;106896;1253;61642;-83
2023/05/19 15:07:34;;;;;;;8.50;4.90;;;;;;;20.00;57.82;98847.30;106423;1258;61846;-82
2023/05/19 15:10:03;;;;;;;5.20;3.90;;;;;;;20.00;57.90;98844.38;106052;1253;75880;-84
2023/05/19 15:12:30;;;;;;;7.00;4.10;;;;;;;19.99;57.83;98840.63;105889;1264;69769;-83
2023/05/19 15:14:58;;;;;;;4.80;4.20;;;;;;;20.00;57.83;98844.41;105975;1258;73613;-83
2023/05/19 15:17:26;;;;;;;8.50;5.00;;;;;;;19.99;57.84;98844.27;106006;1254;60483;-83
2023/05/19 15:19:54;;;;;;;8.70;4.00;;;;;;;20.00;57.79;98846.98;105945;1253;61351;-83
2023/05/19 15:22:21;;;;;;;6.10;4.20;;;;;;;19.99;57.75;98843.23;105917;1253;75035;-83
2023/05/19 15:24:49;;;;;;;10.00;4.50;;;;;;;19.98;57.76;98843.68;105875;1258;70734;-83
2023/05/19 15:27:16;;;;;;;6.50;4.30;;;;;;;19.98;57.74;98845.00;105947;1253;74645;-83
2023/05/19 15:29:44;;;;;;;5.80;4.70;;;;;;;19.98;57.71;98843.36;105909;1258;61465;-84
2023/05/19 15:32:11;;;;;;;7.00;4.20;;;;;;;19.97;57.73;98846.18;106022;1253;61368;-83
2023/05/19 15:34:39;;;;;;;7.90;4.60;;;;;;;19.97;57.73;98843.63;105801;1256;76061;-82
2023/05/19 15:37:07;;;;;;;7.70;4.10;;;;;;;19.96;57.69;98842.97;105737;1253;70866;-84
2023/05/19 15:39:34;;;;;;;10.70;4.40;;;;;;;19.96;57.71;98843.92;105844;1253;73461;-82
2023/05/19 15:42:02;;;;;;;7.50;4.40;;;;;;;19.95;57.66;98844.36;105835;1258;62621;-83
2023/05/19 15:44:29;;;;;;;5.70;4.20;;;;;;;19.94;57.66;98846.30;105898;1253;62760;-83
2023/05/19 15:46:57;;;;;;;5.10;4.00;;;;;;;19.94;57.69;98843.05;105822;1253;75124;-83
2023/05/19 15:49:24;;;;;;;6.30;4.20;;;;;;;19.94;57.73;98847.60;105756;1258;69791;-83
2023/05/19 15:51:52;;;;;;;5.10;4.40;;;;;;;19.93;57.64;98847.13;105772;1256;75217;-82
2023/05/19 15:54:20;;;;;;;5.60;4.40;;;;;;;19.92;57.69;98847.77;105818;1253;61402;-83
2023/05/19 15:56:47;;;;;;;5.20;4.50;;;;;;;19.92;57.72;98846.17;105828;1253;61136;-83
2023/05/19 15:59:15;;;;;;;5.70;5.10;;;;;;;19.92;57.73;98846.16;105752;1255;75924;-82
2023/05/19 16:01:42;;;;;;;5.70;4.60;;;;;;;19.91;57.75;98843.52;105829;1253;71075;-83
2023/05/19 16:04:10;;;;;;;4.70;4.20;;;;;;;19.90;57.69;98845.60;105744;1254;74947;-82
2023/05/19 16:06:38;;;;;;;4.70;3.90;;;;;;;19.90;57.68;98847.64;105828;1253;62348;-83
2023/05/19 16:09:05;;;;;;;4.40;4.00;;;;;;;19.89;57.67;98847.67;105887;1253;61448;-83
2023/05/19 16:11:33;;;;;;;4.20;3.80;;;;;;;19.89;57.69;98849.75;105840;1253;74870;-83
2023/05/19 16:14:00;;;;;;;6.60;4.30;;;;;;;19.88;57.69;98850.87;105977;1255;69937;-83
2023/05/19 16:16:28;;;;;;;4.50;4.10;;;;;;;19.88;57.66;98849.27;105943;1258;75037;-82
2023/05/19 16:18:55;;;;;;;4.90;4.30;;;;;;;19.88;57.62;98856.55;105779;1253;62475;-82
2023/05/19 16:21:23;;;;;;;6.60;4.00;;;;;;;19.87;57.60;98859.18;105710;1253;62265;-84
2023/05/19 16:23:50;;;;;;;4.80;4.20;;;;;;;19.86;57.59;98857.59;106000;1253;73756;-82
2023/05/19 16:26:18;;;;;;;4.20;3.70;;;;;;;19.85;57.63;98859.66;105790;1253;69708;-82
2023/05/19 16:28:45;;;;;;;5.70;4.40;;;;;;;19.85;57.62;98863.69;105785;1253;74926;-82
2023/05/19 16:31:13;;;;;;;9.90;4.60;;;;;;;19.84;57.70;98861.23;105774;1256;61459;-83
2023/05/19 16:33:41;;;;;;;4.90;4.40;;;;;;;19.84;57.63;98860.16;105968;1253;61799;-83
2023/05/19 16:36:08;;;;;;;7.30;4.80;;;;;;;19.84;57.54;98860.74;105760;1253;75664;-83
2023/05/19 16:38:36;;;;;;;4.40;4.00;;;;;;;19.83;57.65;98865.68;106005;1253;71105;-83
2023/05/19 16:41:05;;;;;;;5.70;3.80;;;;;;;19.83;57.62;98867.21;105999;1257;74613;-83
2023/05/19 16:43:34;;;;;;;4.70;4.10;;;;;;;19.82;57.63;98869.59;106011;1253;62120;-83
2023/05/19 16:46:03;;;;;;;5.10;4.50;;;;;;;19.82;57.57;98874.13;105923;1253;62721;-83
2023/05/19 16:48:30;;;;;;;4.70;4.10;;;;;;;19.82;57.65;98875.24;105928;1253;76148;-83
2023/05/19 16:50:58;;;;;;;5.90;5.30;;;;;;;19.81;57.68;98874.79;105908;1253;70513;-83
2023/05/19 16:53:26;;;;;;;6.50;4.70;;;;;;;19.81;57.57;98877.15;105884;1255;73762;-82
2023/05/19 16:55:53;;;;;;;5.10;4.40;;;;;;;19.80;57.58;98873.42;106197;1253;61580;-82
2023/05/19 16:58:21;;;;;;;4.50;4.10;;;;;;;19.80;57.58;98873.62;108262;1256;61399;-83
2023/05/19 17:00:51;;;;;;;4.80;4.40;;;;;;;19.80;57.66;98875.84;107019;1253;74701;-82
2023/05/19 17:03:19;;;;;;;5.10;4.40;;;;;;;19.81;57.61;98878.84;106176;1253;69806;-83
2023/05/19 17:05:47;;;;;;;6.50;4.50;;;;;;;19.81;57.56;98884.87;107056;1253;74730;-83
2023/05/19 17:08:15;;;;;;;5.10;4.40;;;;;;;19.80;57.48;98892.50;106218;1253;61690;-83
2023/05/19 17:10:43;;;;;;;5.00;4.50;;;;;;;19.81;57.58;98894.30;105948;1253;61241;-83
2023/05/19 17:13:11;;;;;;;4.70;4.00;;;;;;;19.80;57.54;98890.15;105854;1258;75740;-83
2023/05/19 17:15:39;;;;;;;5.20;4.10;;;;;;;19.81;57.51;98892.10;105850;1253;70642;-83
2023/05/19 17:18:11;;;;;;;5.30;4.50;;;;;;;19.81;57.62;98890.08;105867;1253;74571;-82
2023/05/19 17:20:38;;;;;;;5.00;4.50;;;;;;;19.81;57.39;98885.75;106029;1259;61388;-83
2023/05/19 17:23:07;;;;;;;4.60;4.20;;;;;;;19.80;57.41;98885.98;105985;1253;61132;-83
2023/05/19 17:25:34;;;;;;;5.30;4.80;;;;;;;19.80;57.39;98885.48;105881;1258;75676;-82
2023/05/19 17:28:02;;;;;;;4.80;4.30;;;;;;;19.80;57.43;98886.03;105858;1258;68792;-83
2023/05/19 17:30:30;;;;;;;6.40;4.50;;;;;;;19.79;57.37;98888.13;105943;1255;74418;-82
2023/05/19 17:32:58;;;;;;;5.30;4.80;;;;;;;19.79;57.39;98887.75;105788;1258;61093;-82
2023/05/19 17:35:25;;;;;;;5.10;4.50;;;;;;;19.78;57.38;98886.73;105826;1258;61231;-82
2023/05/19 17:37:54;;;;;;;4.90;4.50;;;;;;;19.78;57.39;98888.73;105786;1258;75477;-82
2023/05/19 17:40:22;;;;;;;5.60;4.50;;;;;;;19.78;57.39;98890.77;105845;1258;69680;-84
2023/05/19 17:42:50;;;;;;;4.80;4.40;;;;;;;19.78;57.33;98894.61;105812;1258;72708;-83
2023/05/19 17:45:17;;;;;;;5.10;4.70;;;;;;;19.77;57.44;98893.93;105998;1253;62270;-84
2023/05/19 17:47:45;;;;;;;5.70;5.10;;;;;;;19.77;57.45;98896.65;105782;1260;60995;-82
2023/05/19 17:50:13;;;;;;;5.60;4.60;;;;;;;19.77;57.41;98896.88;105881;1258;75851;-82
2023/05/19 17:52:42;;;;;;;5.70;5.00;;;;;;;19.76;57.38;98898.59;105971;1253;71135;-82
2023/05/19 17:55:10;;;;;;;4.90;4.50;;;;;;;19.76;57.34;98898.59;105896;1258;73566;-82
2023/05/19 17:57:39;;;;;;;4.90;4.50;;;;;;;19.75;57.37;98903.88;105744;1261;61748;-83
2023/05/19 18:00:07;;;;;;;5.60;5.00;;;;;;;19.75;57.32;98900.63;105873;1254;62425;-76
2023/05/19 18:02:35;;;;;;;5.10;4.70;;;;;;;19.75;57.39;98900.13;105786;1258;75648;-76
2023/05/19 18:05:04;;;;;;;5.60;4.50;;;;;;;19.75;57.35;98901.59;105783;1259;69587;-76
2023/05/19 18:07:31;;;;;;;5.90;4.40;;;;;;;19.74;57.36;98900.21;105883;1256;73977;-76
2023/05/19 18:10:00;;;;;;;5.30;4.80;;;;;;;19.74;57.33;98903.52;105785;1257;62644;-76
2023/05/19 18:12:27;;;;;;;5.30;4.80;;;;;;;19.73;57.39;98901.71;105962;1260;61701;-76
2023/05/19 18:14:55;;;;;;;7.20;4.70;;;;;;;19.73;57.44;98903.98;105936;1260;75636;-76
2023/05/19 18:17:23;;;;;;;5.00;4.60;;;;;;;19.72;57.27;98906.94;105974;1254;70615;-76
2023/05/19 18:19:51;;;;;;;5.50;5.00;;;;;;;19.72;57.34;98911.87;105845;1256;73789;-76
2023/05/19 18:22:18;;;;;;;5.20;4.70;;;;;;;19.71;57.36;98909.36;105809;1256;61536;-77
2023/05/19 18:24:47;;;;;;;4.90;4.50;;;;;;;19.71;57.36;98909.08;105676;1260;62405;-77
2023/05/19 18:27:15;;;;;;;5.00;4.60;;;;;;;19.71;57.38;98911.05;105891;1261;75942;-77
2023/05/19 18:29:42;;;;;;;4.90;4.50;;;;;;;19.70;57.38;98910.23;105947;1256;70643;-76